sensor_id;sensor_type;location;lat;lon;timestamp;P1;durP1;ratioP1;P2;durP2;ratioP2
10523;SDS011;5310;48.638;9.060;2024-02-23T00:01:49;1.10;;;1.10;;
10523;SDS011;5310;48.638;9.060;2024-02-23T00:04:16;1.10;;;1.10;;
10523;SDS011;5310;48.638;9.060;2024-02-23T00:06:44;1.10;;;1.10;;
10523;SDS011;5310;48.638;9.060;2024-02-23T00:09:10;1.10;;;1.10;;
10523;SDS011;5310;48.638;9.060;2024-02-23T00:11:38;1.10;;;1.10;;
10523;SDS011;5310;48.638;9.060;2024-02-23T00:14:06;1.10;;;1.10;;
10523;SDS011;5310;48.638;9.060;2024-02-23T00:16:39;1.10;;;1.10;;
10523;SDS011;5310;48.638;9.060;2024-02-23T00:19:07;1.10;;;1.10;;
10523;SDS011;5310;48.638;9.060;2024-02-23T00:21:33;1.17;;;1.17;;
10523;SDS011;5310;48.638;9.060;2024-02-23T00:24:00;1.10;;;1.10;;
10523;SDS011;5310;48.638;9.060;2024-02-23T00:26:26;1.10;;;1.10;;
10523;SDS011;5310;48.638;9.060;2024-02-23T00:28:54;1.10;;;1.10;;
10523;SDS011;5310;48.638;9.060;2024-02-23T00:31:19;1.20;;;1.20;;
10523;SDS011;5310;48.638;9.060;2024-02-23T00:33:45;1.10;;;1.10;;
10523;SDS011;5310;48.638;9.060;2024-02-23T00:36:11;1.10;;;1.10;;
10523;SDS011;5310;48.638;9.060;2024-02-23T00:38:37;1.10;;;1.10;;
10523;SDS011;5310;48.638;9.060;2024-02-23T00:41:03;1.10;;;1.10;;
10523;SDS011;5310;48.638;9.060;2024-02-23T00:43:29;1.00;;;1.00;;
10523;SDS011;5310;48.638;9.060;2024-02-23T00:45:56;1.10;;;1.10;;
10523;SDS011;5310;48.638;9.060;2024-02-23T00:48:22;1.10;;;1.10;;
10523;SDS011;5310;48.638;9.060;2024-02-23T00:50:47;1.10;;;1.10;;
10523;SDS011;5310;48.638;9.060;2024-02-23T00:53:13;1.10;;;1.10;;
10523;SDS011;5310;48.638;9.060;2024-02-23T00:55:39;1.10;;;1.10;;
10523;SDS011;5310;48.638;9.060;2024-02-23T00:58:05;1.10;;;1.10;;
10523;SDS011;5310;48.638;9.060;2024-02-23T01:00:31;1.10;;;1.10;;
10523;SDS011;5310;48.638;9.060;2024-02-23T01:02:58;1.10;;;1.10;;
10523;SDS011;5310;48.638;9.060;2024-02-23T01:05:25;1.10;;;1.10;;
10523;SDS011;5310;48.638;9.060;2024-02-23T01:07:51;1.10;;;1.10;;
10523;SDS011;5310;48.638;9.060;2024-02-23T01:10:17;1.10;;;1.10;;
10523;SDS011;5310;48.638;9.060;2024-02-23T01:12:43;1.20;;;1.20;;
10523;SDS011;5310;48.638;9.060;2024-02-23T01:15:09;1.10;;;1.10;;
10523;SDS011;5310;48.638;9.060;2024-02-23T01:17:35;1.10;;;1.10;;
10523;SDS011;5310;48.638;9.060;2024-02-23T01:20:01;1.10;;;1.10;;
10523;SDS011;5310;48.638;9.060;2024-02-23T01:22:27;1.10;;;1.10;;
10523;SDS011;5310;48.638;9.060;2024-02-23T01:24:53;1.10;;;1.10;;
10523;SDS011;5310;48.638;9.060;2024-02-23T01:27:18;1.20;;;1.20;;
10523;SDS011;5310;48.638;9.060;2024-02-23T01:29:44;1.10;;;1.10;;
10523;SDS011;5310;48.638;9.060;2024-02-23T01:32:10;1.10;;;1.10;;
10523;SDS011;5310;48.638;9.060;2024-02-23T01:34:36;1.10;;;1.10;;
10523;SDS011;5310;48.638;9.060;2024-02-23T01:37:02;1.13;;;1.13;;
10523;SDS011;5310;48.638;9.060;2024-02-23T01:39:28;1.20;;;1.20;;
10523;SDS011;5310;48.638;9.060;2024-02-23T01:41:54;1.10;;;1.10;;
10523;SDS011;5310;48.638;9.060;2024-02-23T01:44:20;1.20;;;1.20;;
10523;SDS011;5310;48.638;9.060;2024-02-23T01:46:46;1.10;;;1.10;;
10523;SDS011;5310;48.638;9.060;2024-02-23T01:49:12;1.10;;;1.10;;
10523;SDS011;5310;48.638;9.060;2024-02-23T01:51:39;1.10;;;1.10;;
10523;SDS011;5310;48.638;9.060;2024-02-23T01:54:05;1.10;;;1.10;;
10523;SDS011;5310;48.638;9.060;2024-02-23T01:56:32;1.10;;;1.10;;
10523;SDS011;5310;48.638;9.060;2024-02-23T01:59:01;1.10;;;1.10;;
10523;SDS011;5310;48.638;9.060;2024-02-23T02:01:28;1.20;;;1.20;;
10523;SDS011;5310;48.638;9.060;2024-02-23T02:03:55;1.10;;;1.10;;
10523;SDS011;5310;48.638;9.060;2024-02-23T02:06:21;1.30;;;1.23;;
10523;SDS011;5310;48.638;9.060;2024-02-23T02:08:47;1.10;;;1.10;;
10523;SDS011;5310;48.638;9.060;2024-02-23T02:11:13;1.20;;;1.20;;
10523;SDS011;5310;48.638;9.060;2024-02-23T02:13:40;1.10;;;1.10;;
10523;SDS011;5310;48.638;9.060;2024-02-23T02:16:06;1.10;;;1.10;;
10523;SDS011;5310;48.638;9.060;2024-02-23T02:18:31;1.10;;;1.10;;
10523;SDS011;5310;48.638;9.060;2024-02-23T02:20:57;1.10;;;1.10;;
10523;SDS011;5310;48.638;9.060;2024-02-23T02:23:24;1.10;;;1.10;;
10523;SDS011;5310;48.638;9.060;2024-02-23T02:25:57;1.10;;;1.10;;
10523;SDS011;5310;48.638;9.060;2024-02-23T02:28:23;1.10;;;1.10;;
10523;SDS011;5310;48.638;9.060;2024-02-23T02:30:50;1.10;;;1.10;;
10523;SDS011;5310;48.638;9.060;2024-02-23T02:33:16;1.10;;;1.10;;
10523;SDS011;5310;48.638;9.060;2024-02-23T02:35:42;1.10;;;1.10;;
10523;SDS011;5310;48.638;9.060;2024-02-23T02:38:08;1.10;;;1.10;;
10523;SDS011;5310;48.638;9.060;2024-02-23T02:40:34;1.20;;;1.20;;
10523;SDS011;5310;48.638;9.060;2024-02-23T02:43:00;1.10;;;1.10;;
10523;SDS011;5310;48.638;9.060;2024-02-23T02:45:26;1.10;;;1.10;;
10523;SDS011;5310;48.638;9.060;2024-02-23T02:47:52;1.20;;;1.20;;
10523;SDS011;5310;48.638;9.060;2024-02-23T02:50:18;1.10;;;1.10;;
10523;SDS011;5310;48.638;9.060;2024-02-23T02:52:44;1.20;;;1.20;;
10523;SDS011;5310;48.638;9.060;2024-02-23T02:55:11;1.10;;;1.10;;
10523;SDS011;5310;48.638;9.060;2024-02-23T02:57:37;1.10;;;1.10;;
10523;SDS011;5310;48.638;9.060;2024-02-23T03:00:03;1.10;;;1.10;;
10523;SDS011;5310;48.638;9.060;2024-02-23T03:02:33;1.20;;;1.20;;
10523;SDS011;5310;48.638;9.060;2024-02-23T03:04:59;1.10;;;1.10;;
10523;SDS011;5310;48.638;9.060;2024-02-23T03:07:25;1.10;;;1.10;;
10523;SDS011;5310;48.638;9.060;2024-02-23T03:09:51;1.10;;;1.10;;
10523;SDS011;5310;48.638;9.060;2024-02-23T03:12:17;1.10;;;1.10;;
10523;SDS011;5310;48.638;9.060;2024-02-23T03:14:44;1.10;;;1.10;;
10523;SDS011;5310;48.638;9.060;2024-02-23T03:17:10;1.10;;;1.10;;
10523;SDS011;5310;48.638;9.060;2024-02-23T03:19:35;1.10;;;1.10;;
10523;SDS011;5310;48.638;9.060;2024-02-23T03:22:02;1.10;;;1.10;;
10523;SDS011;5310;48.638;9.060;2024-02-23T03:24:28;1.10;;;1.10;;
10523;SDS011;5310;48.638;9.060;2024-02-23T03:26:54;1.10;;;1.10;;
10523;SDS011;5310;48.638;9.060;2024-02-23T03:29:20;1.10;;;1.10;;
10523;SDS011;5310;48.638;9.060;2024-02-23T03:31:49;1.20;;;1.20;;
10523;SDS011;5310;48.638;9.060;2024-02-23T03:34:15;1.10;;;1.10;;
10523;SDS011;5310;48.638;9.060;2024-02-23T03:36:40;1.10;;;1.10;;
10523;SDS011;5310;48.638;9.060;2024-02-23T03:39:06;1.20;;;1.20;;
10523;SDS011;5310;48.638;9.060;2024-02-23T03:41:32;1.10;;;1.10;;
10523;SDS011;5310;48.638;9.060;2024-02-23T03:43:58;1.10;;;1.10;;
10523;SDS011;5310;48.638;9.060;2024-02-23T03:46:24;1.17;;;1.17;;
10523;SDS011;5310;48.638;9.060;2024-02-23T03:48:50;1.10;;;1.10;;
10523;SDS011;5310;48.638;9.060;2024-02-23T03:51:17;1.10;;;1.10;;
10523;SDS011;5310;48.638;9.060;2024-02-23T03:53:43;1.10;;;1.10;;
10523;SDS011;5310;48.638;9.060;2024-02-23T03:56:08;1.20;;;1.20;;
10523;SDS011;5310;48.638;9.060;2024-02-23T03:58:34;1.10;;;1.10;;
10523;SDS011;5310;48.638;9.060;2024-02-23T04:01:00;1.10;;;1.10;;
10523;SDS011;5310;48.638;9.060;2024-02-23T04:03:26;1.10;;;1.10;;
10523;SDS011;5310;48.638;9.060;2024-02-23T04:05:52;1.10;;;1.10;;
10523;SDS011;5310;48.638;9.060;2024-02-23T04:08:18;1.20;;;1.20;;
10523;SDS011;5310;48.638;9.060;2024-02-23T04:10:44;1.10;;;1.10;;
10523;SDS011;5310;48.638;9.060;2024-02-23T04:13:10;1.10;;;1.10;;
10523;SDS011;5310;48.638;9.060;2024-02-23T04:15:38;1.13;;;1.13;;
10523;SDS011;5310;48.638;9.060;2024-02-23T04:18:04;1.20;;;1.20;;
10523;SDS011;5310;48.638;9.060;2024-02-23T04:20:30;1.20;;;1.20;;
10523;SDS011;5310;48.638;9.060;2024-02-23T04:22:57;1.20;;;1.20;;
10523;SDS011;5310;48.638;9.060;2024-02-23T04:25:23;1.20;;;1.20;;
10523;SDS011;5310;48.638;9.060;2024-02-23T04:27:49;1.20;;;1.20;;
10523;SDS011;5310;48.638;9.060;2024-02-23T04:30:15;1.20;;;1.20;;
10523;SDS011;5310;48.638;9.060;2024-02-23T04:32:41;1.20;;;1.20;;
10523;SDS011;5310;48.638;9.060;2024-02-23T04:35:07;1.10;;;1.10;;
10523;SDS011;5310;48.638;9.060;2024-02-23T04:37:33;1.13;;;1.13;;
10523;SDS011;5310;48.638;9.060;2024-02-23T04:39:59;1.10;;;1.10;;
10523;SDS011;5310;48.638;9.060;2024-02-23T04:42:25;1.20;;;1.20;;
10523;SDS011;5310;48.638;9.060;2024-02-23T04:44:51;1.10;;;1.10;;
10523;SDS011;5310;48.638;9.060;2024-02-23T04:47:19;1.20;;;1.20;;
10523;SDS011;5310;48.638;9.060;2024-02-23T04:49:45;1.10;;;1.10;;
10523;SDS011;5310;48.638;9.060;2024-02-23T04:52:11;1.10;;;1.10;;
10523;SDS011;5310;48.638;9.060;2024-02-23T04:54:37;1.10;;;1.10;;
10523;SDS011;5310;48.638;9.060;2024-02-23T04:57:03;1.10;;;1.10;;
10523;SDS011;5310;48.638;9.060;2024-02-23T04:59:29;1.10;;;1.10;;
10523;SDS011;5310;48.638;9.060;2024-02-23T05:01:57;1.10;;;1.10;;
10523;SDS011;5310;48.638;9.060;2024-02-23T05:04:23;1.10;;;1.10;;
10523;SDS011;5310;48.638;9.060;2024-02-23T05:06:51;1.10;;;1.10;;
10523;SDS011;5310;48.638;9.060;2024-02-23T05:09:17;1.10;;;1.10;;
10523;SDS011;5310;48.638;9.060;2024-02-23T05:11:43;1.20;;;1.20;;
10523;SDS011;5310;48.638;9.060;2024-02-23T05:14:11;1.10;;;1.10;;
10523;SDS011;5310;48.638;9.060;2024-02-23T05:16:37;1.10;;;1.10;;
10523;SDS011;5310;48.638;9.060;2024-02-23T05:19:02;1.10;;;1.10;;
10523;SDS011;5310;48.638;9.060;2024-02-23T05:21:28;1.10;;;1.10;;
10523;SDS011;5310;48.638;9.060;2024-02-23T05:23:54;1.20;;;1.20;;
10523;SDS011;5310;48.638;9.060;2024-02-23T05:26:20;1.20;;;1.20;;
10523;SDS011;5310;48.638;9.060;2024-02-23T05:28:46;1.20;;;1.20;;
10523;SDS011;5310;48.638;9.060;2024-02-23T05:31:12;1.20;;;1.20;;
10523;SDS011;5310;48.638;9.060;2024-02-23T05:33:38;1.10;;;1.10;;
10523;SDS011;5310;48.638;9.060;2024-02-23T05:36:04;1.20;;;1.20;;
10523;SDS011;5310;48.638;9.060;2024-02-23T05:38:30;1.20;;;1.20;;
10523;SDS011;5310;48.638;9.060;2024-02-23T05:40:56;1.10;;;1.10;;
10523;SDS011;5310;48.638;9.060;2024-02-23T05:43:22;1.10;;;1.10;;
10523;SDS011;5310;48.638;9.060;2024-02-23T05:45:48;1.10;;;1.10;;
10523;SDS011;5310;48.638;9.060;2024-02-23T05:48:14;1.10;;;1.10;;
10523;SDS011;5310;48.638;9.060;2024-02-23T05:50:40;1.10;;;1.10;;
10523;SDS011;5310;48.638;9.060;2024-02-23T05:53:06;1.13;;;1.13;;
10523;SDS011;5310;48.638;9.060;2024-02-23T05:55:32;1.10;;;1.10;;
10523;SDS011;5310;48.638;9.060;2024-02-23T05:57:58;1.20;;;1.20;;
10523;SDS011;5310;48.638;9.060;2024-02-23T06:00:24;1.10;;;1.10;;
10523;SDS011;5310;48.638;9.060;2024-02-23T06:02:50;1.20;;;1.20;;
10523;SDS011;5310;48.638;9.060;2024-02-23T06:05:16;1.20;;;1.20;;
10523;SDS011;5310;48.638;9.060;2024-02-23T06:07:42;1.10;;;1.10;;
10523;SDS011;5310;48.638;9.060;2024-02-23T06:10:08;1.20;;;1.20;;
10523;SDS011;5310;48.638;9.060;2024-02-23T06:12:35;1.30;;;1.20;;
10523;SDS011;5310;48.638;9.060;2024-02-23T06:15:01;1.10;;;1.10;;
10523;SDS011;5310;48.638;9.060;2024-02-23T06:17:27;1.20;;;1.20;;
10523;SDS011;5310;48.638;9.060;2024-02-23T06:19:53;1.10;;;1.10;;
10523;SDS011;5310;48.638;9.060;2024-02-23T06:22:21;1.10;;;1.10;;
10523;SDS011;5310;48.638;9.060;2024-02-23T06:24:48;1.10;;;1.10;;
10523;SDS011;5310;48.638;9.060;2024-02-23T06:27:14;1.10;;;1.10;;
10523;SDS011;5310;48.638;9.060;2024-02-23T06:29:40;1.10;;;1.10;;
10523;SDS011;5310;48.638;9.060;2024-02-23T06:32:06;1.17;;;1.17;;
10523;SDS011;5310;48.638;9.060;2024-02-23T06:34:32;1.10;;;1.10;;
10523;SDS011;5310;48.638;9.060;2024-02-23T06:36:58;1.10;;;1.10;;
10523;SDS011;5310;48.638;9.060;2024-02-23T06:39:24;1.10;;;1.10;;
10523;SDS011;5310;48.638;9.060;2024-02-23T06:41:51;1.10;;;1.10;;
10523;SDS011;5310;48.638;9.060;2024-02-23T06:44:17;1.10;;;1.10;;
10523;SDS011;5310;48.638;9.060;2024-02-23T06:46:43;1.20;;;1.20;;
10523;SDS011;5310;48.638;9.060;2024-02-23T06:49:09;1.17;;;1.17;;
10523;SDS011;5310;48.638;9.060;2024-02-23T06:51:35;1.10;;;1.10;;
10523;SDS011;5310;48.638;9.060;2024-02-23T06:54:01;1.10;;;1.10;;
10523;SDS011;5310;48.638;9.060;2024-02-23T06:56:28;1.10;;;1.10;;
10523;SDS011;5310;48.638;9.060;2024-02-23T06:58:54;1.10;;;1.10;;
10523;SDS011;5310;48.638;9.060;2024-02-23T07:01:20;1.20;;;1.20;;
10523;SDS011;5310;48.638;9.060;2024-02-23T07:03:46;1.20;;;1.20;;
10523;SDS011;5310;48.638;9.060;2024-02-23T07:06:15;1.10;;;1.10;;
10523;SDS011;5310;48.638;9.060;2024-02-23T07:08:43;1.10;;;1.10;;
10523;SDS011;5310;48.638;9.060;2024-02-23T07:11:09;1.20;;;1.20;;
10523;SDS011;5310;48.638;9.060;2024-02-23T07:13:35;1.20;;;1.20;;
10523;SDS011;5310;48.638;9.060;2024-02-23T07:16:01;1.10;;;1.10;;
10523;SDS011;5310;48.638;9.060;2024-02-23T07:18:27;1.10;;;1.10;;
10523;SDS011;5310;48.638;9.060;2024-02-23T07:20:54;1.10;;;1.10;;
10523;SDS011;5310;48.638;9.060;2024-02-23T07:23:19;1.10;;;1.10;;
10523;SDS011;5310;48.638;9.060;2024-02-23T07:25:47;1.20;;;1.20;;
10523;SDS011;5310;48.638;9.060;2024-02-23T07:28:15;1.20;;;1.20;;
10523;SDS011;5310;48.638;9.060;2024-02-23T07:30:44;1.20;;;1.20;;
10523;SDS011;5310;48.638;9.060;2024-02-23T07:33:10;1.20;;;1.20;;
10523;SDS011;5310;48.638;9.060;2024-02-23T07:35:36;1.10;;;1.10;;
10523;SDS011;5310;48.638;9.060;2024-02-23T07:38:02;1.20;;;1.20;;
10523;SDS011;5310;48.638;9.060;2024-02-23T07:40:29;1.20;;;1.20;;
10523;SDS011;5310;48.638;9.060;2024-02-23T07:42:57;1.10;;;1.10;;
10523;SDS011;5310;48.638;9.060;2024-02-23T07:45:22;1.10;;;1.10;;
10523;SDS011;5310;48.638;9.060;2024-02-23T07:47:48;1.10;;;1.10;;
10523;SDS011;5310;48.638;9.060;2024-02-23T07:50:14;1.10;;;1.10;;
10523;SDS011;5310;48.638;9.060;2024-02-23T07:52:41;1.10;;;1.10;;
10523;SDS011;5310;48.638;9.060;2024-02-23T07:55:07;1.10;;;1.10;;
10523;SDS011;5310;48.638;9.060;2024-02-23T07:57:33;1.10;;;1.10;;
10523;SDS011;5310;48.638;9.060;2024-02-23T07:59:59;1.17;;;1.17;;
10523;SDS011;5310;48.638;9.060;2024-02-23T08:02:25;1.10;;;1.10;;
10523;SDS011;5310;48.638;9.060;2024-02-23T08:04:51;1.10;;;1.10;;
10523;SDS011;5310;48.638;9.060;2024-02-23T08:07:17;1.10;;;1.10;;
10523;SDS011;5310;48.638;9.060;2024-02-23T08:09:43;1.10;;;1.10;;
10523;SDS011;5310;48.638;9.060;2024-02-23T08:12:09;1.10;;;1.10;;
10523;SDS011;5310;48.638;9.060;2024-02-23T08:14:36;1.10;;;1.10;;
10523;SDS011;5310;48.638;9.060;2024-02-23T08:17:02;1.10;;;1.10;;
10523;SDS011;5310;48.638;9.060;2024-02-23T08:19:28;1.20;;;1.20;;
10523;SDS011;5310;48.638;9.060;2024-02-23T08:21:54;1.10;;;1.10;;
10523;SDS011;5310;48.638;9.060;2024-02-23T08:24:20;1.10;;;1.10;;
10523;SDS011;5310;48.638;9.060;2024-02-23T08:26:46;1.10;;;1.10;;
10523;SDS011;5310;48.638;9.060;2024-02-23T08:29:12;1.10;;;1.10;;
10523;SDS011;5310;48.638;9.060;2024-02-23T08:31:38;1.10;;;1.10;;
10523;SDS011;5310;48.638;9.060;2024-02-23T08:34:03;1.20;;;1.20;;
10523;SDS011;5310;48.638;9.060;2024-02-23T08:36:29;1.10;;;1.10;;
10523;SDS011;5310;48.638;9.060;2024-02-23T08:38:55;1.20;;;1.20;;
10523;SDS011;5310;48.638;9.060;2024-02-23T08:41:21;1.10;;;1.10;;
10523;SDS011;5310;48.638;9.060;2024-02-23T08:43:47;1.10;;;1.10;;
10523;SDS011;5310;48.638;9.060;2024-02-23T08:46:15;1.10;;;1.10;;
10523;SDS011;5310;48.638;9.060;2024-02-23T08:48:40;1.10;;;1.10;;
10523;SDS011;5310;48.638;9.060;2024-02-23T08:51:06;1.10;;;1.10;;
10523;SDS011;5310;48.638;9.060;2024-02-23T08:53:32;1.20;;;1.20;;
10523;SDS011;5310;48.638;9.060;2024-02-23T08:55:58;1.10;;;1.10;;
10523;SDS011;5310;48.638;9.060;2024-02-23T08:58:25;1.10;;;1.10;;
10523;SDS011;5310;48.638;9.060;2024-02-23T09:00:51;1.10;;;1.10;;
10523;SDS011;5310;48.638;9.060;2024-02-23T09:03:17;1.10;;;1.10;;
10523;SDS011;5310;48.638;9.060;2024-02-23T09:05:43;1.10;;;1.10;;
10523;SDS011;5310;48.638;9.060;2024-02-23T09:08:11;1.10;;;1.10;;
10523;SDS011;5310;48.638;9.060;2024-02-23T09:10:37;1.10;;;1.10;;
10523;SDS011;5310;48.638;9.060;2024-02-23T09:13:03;1.10;;;1.10;;
10523;SDS011;5310;48.638;9.060;2024-02-23T09:15:29;1.00;;;1.00;;
10523;SDS011;5310;48.638;9.060;2024-02-23T09:17:55;1.00;;;1.00;;
10523;SDS011;5310;48.638;9.060;2024-02-23T09:20:21;1.10;;;1.10;;
10523;SDS011;5310;48.638;9.060;2024-02-23T09:22:48;1.00;;;1.00;;
10523;SDS011;5310;48.638;9.060;2024-02-23T09:25:14;1.10;;;1.10;;
10523;SDS011;5310;48.638;9.060;2024-02-23T09:27:40;1.10;;;1.10;;
10523;SDS011;5310;48.638;9.060;2024-02-23T09:30:12;1.00;;;1.00;;
10523;SDS011;5310;48.638;9.060;2024-02-23T09:32:38;1.10;;;1.10;;
10523;SDS011;5310;48.638;9.060;2024-02-23T09:35:04;1.10;;;1.10;;
10523;SDS011;5310;48.638;9.060;2024-02-23T09:37:31;1.10;;;1.10;;
10523;SDS011;5310;48.638;9.060;2024-02-23T09:39:57;1.10;;;1.10;;
10523;SDS011;5310;48.638;9.060;2024-02-23T09:42:23;1.00;;;1.00;;
10523;SDS011;5310;48.638;9.060;2024-02-23T09:44:59;1.10;;;1.10;;
10523;SDS011;5310;48.638;9.060;2024-02-23T09:47:27;1.10;;;1.10;;
10523;SDS011;5310;48.638;9.060;2024-02-23T09:49:53;1.00;;;1.00;;
10523;SDS011;5310;48.638;9.060;2024-02-23T09:52:19;1.10;;;1.10;;
10523;SDS011;5310;48.638;9.060;2024-02-23T09:54:46;1.10;;;1.10;;
10523;SDS011;5310;48.638;9.060;2024-02-23T09:57:12;1.00;;;1.00;;
10523;SDS011;5310;48.638;9.060;2024-02-23T09:59:39;1.10;;;1.10;;
10523;SDS011;5310;48.638;9.060;2024-02-23T10:02:08;1.00;;;1.00;;
10523;SDS011;5310;48.638;9.060;2024-02-23T10:04:40;1.00;;;1.00;;
10523;SDS011;5310;48.638;9.060;2024-02-23T10:07:08;1.00;;;1.00;;
10523;SDS011;5310;48.638;9.060;2024-02-23T10:09:34;1.10;;;1.10;;
10523;SDS011;5310;48.638;9.060;2024-02-23T10:12:01;1.00;;;1.00;;
10523;SDS011;5310;48.638;9.060;2024-02-23T10:14:27;1.00;;;1.00;;
10523;SDS011;5310;48.638;9.060;2024-02-23T10:16:53;1.10;;;1.10;;
10523;SDS011;5310;48.638;9.060;2024-02-23T10:19:20;1.00;;;1.00;;
10523;SDS011;5310;48.638;9.060;2024-02-23T10:21:46;1.00;;;1.00;;
10523;SDS011;5310;48.638;9.060;2024-02-23T10:24:12;1.10;;;1.10;;
10523;SDS011;5310;48.638;9.060;2024-02-23T10:26:38;1.00;;;1.00;;
10523;SDS011;5310;48.638;9.060;2024-02-23T10:29:04;1.00;;;1.00;;
10523;SDS011;5310;48.638;9.060;2024-02-23T10:31:34;1.10;;;1.10;;
10523;SDS011;5310;48.638;9.060;2024-02-23T10:34:08;1.00;;;1.00;;
10523;SDS011;5310;48.638;9.060;2024-02-23T10:36:37;1.00;;;1.00;;
10523;SDS011;5310;48.638;9.060;2024-02-23T10:39:06;1.00;;;1.00;;
10523;SDS011;5310;48.638;9.060;2024-02-23T10:41:34;1.00;;;1.00;;
10523;SDS011;5310;48.638;9.060;2024-02-23T10:44:04;1.10;;;1.10;;
10523;SDS011;5310;48.638;9.060;2024-02-23T10:46:30;1.10;;;1.10;;
10523;SDS011;5310;48.638;9.060;2024-02-23T10:48:57;0.93;;;0.93;;
10523;SDS011;5310;48.638;9.060;2024-02-23T10:51:26;1.00;;;1.00;;
10523;SDS011;5310;48.638;9.060;2024-02-23T10:53:52;1.00;;;1.00;;
10523;SDS011;5310;48.638;9.060;2024-02-23T10:56:18;1.00;;;1.00;;
10523;SDS011;5310;48.638;9.060;2024-02-23T10:58:44;1.00;;;1.00;;
10523;SDS011;5310;48.638;9.060;2024-02-23T11:01:10;1.00;;;1.00;;
10523;SDS011;5310;48.638;9.060;2024-02-23T11:03:37;0.90;;;0.90;;
10523;SDS011;5310;48.638;9.060;2024-02-23T11:06:07;1.00;;;1.00;;
10523;SDS011;5310;48.638;9.060;2024-02-23T11:08:33;1.00;;;1.00;;
10523;SDS011;5310;48.638;9.060;2024-02-23T11:11:07;0.90;;;0.90;;
10523;SDS011;5310;48.638;9.060;2024-02-23T11:13:37;1.10;;;1.10;;
10523;SDS011;5310;48.638;9.060;2024-02-23T11:16:04;0.90;;;0.90;;
10523;SDS011;5310;48.638;9.060;2024-02-23T11:18:31;1.00;;;1.00;;
10523;SDS011;5310;48.638;9.060;2024-02-23T11:21:00;1.00;;;1.00;;
10523;SDS011;5310;48.638;9.060;2024-02-23T11:23:38;1.00;;;1.00;;
10523;SDS011;5310;48.638;9.060;2024-02-23T11:26:10;1.00;;;1.00;;
10523;SDS011;5310;48.638;9.060;2024-02-23T11:28:43;0.90;;;0.90;;
10523;SDS011;5310;48.638;9.060;2024-02-23T11:31:15;1.07;;;1.07;;
10523;SDS011;5310;48.638;9.060;2024-02-23T11:33:48;1.00;;;1.00;;
10523;SDS011;5310;48.638;9.060;2024-02-23T11:36:21;0.90;;;0.90;;
10523;SDS011;5310;48.638;9.060;2024-02-23T11:38:47;1.00;;;1.00;;
10523;SDS011;5310;48.638;9.060;2024-02-23T11:41:13;1.00;;;1.00;;
10523;SDS011;5310;48.638;9.060;2024-02-23T11:43:39;1.00;;;1.00;;
10523;SDS011;5310;48.638;9.060;2024-02-23T11:46:07;1.00;;;1.00;;
10523;SDS011;5310;48.638;9.060;2024-02-23T11:48:33;1.00;;;1.00;;
10523;SDS011;5310;48.638;9.060;2024-02-23T11:50:59;1.00;;;1.00;;
10523;SDS011;5310;48.638;9.060;2024-02-23T11:53:24;1.00;;;1.00;;
10523;SDS011;5310;48.638;9.060;2024-02-23T11:55:52;1.00;;;1.00;;
10523;SDS011;5310;48.638;9.060;2024-02-23T11:58:18;0.90;;;0.90;;
10523;SDS011;5310;48.638;9.060;2024-02-23T12:00:44;1.00;;;1.00;;
10523;SDS011;5310;48.638;9.060;2024-02-23T12:03:11;1.00;;;1.00;;
10523;SDS011;5310;48.638;9.060;2024-02-23T12:05:37;1.00;;;1.00;;
10523;SDS011;5310;48.638;9.060;2024-02-23T12:08:04;1.00;;;1.00;;
10523;SDS011;5310;48.638;9.060;2024-02-23T12:10:30;1.10;;;1.10;;
10523;SDS011;5310;48.638;9.060;2024-02-23T12:12:56;1.00;;;1.00;;
10523;SDS011;5310;48.638;9.060;2024-02-23T12:15:22;0.97;;;0.97;;
10523;SDS011;5310;48.638;9.060;2024-02-23T12:17:48;1.00;;;1.00;;
10523;SDS011;5310;48.638;9.060;2024-02-23T12:20:14;1.00;;;1.00;;
10523;SDS011;5310;48.638;9.060;2024-02-23T12:22:41;1.00;;;1.00;;
10523;SDS011;5310;48.638;9.060;2024-02-23T12:25:07;1.00;;;1.00;;
10523;SDS011;5310;48.638;9.060;2024-02-23T12:27:33;1.07;;;1.07;;
10523;SDS011;5310;48.638;9.060;2024-02-23T12:29:59;1.00;;;1.00;;
10523;SDS011;5310;48.638;9.060;2024-02-23T12:32:25;1.00;;;1.00;;
10523;SDS011;5310;48.638;9.060;2024-02-23T12:34:52;1.00;;;1.00;;
10523;SDS011;5310;48.638;9.060;2024-02-23T12:37:18;1.00;;;1.00;;
10523;SDS011;5310;48.638;9.060;2024-02-23T12:39:44;1.07;;;1.07;;
10523;SDS011;5310;48.638;9.060;2024-02-23T12:42:10;1.00;;;1.00;;
10523;SDS011;5310;48.638;9.060;2024-02-23T12:44:35;1.00;;;1.00;;
10523;SDS011;5310;48.638;9.060;2024-02-23T12:47:01;1.10;;;1.10;;
10523;SDS011;5310;48.638;9.060;2024-02-23T12:49:28;1.10;;;1.10;;
10523;SDS011;5310;48.638;9.060;2024-02-23T12:51:54;1.00;;;1.00;;
10523;SDS011;5310;48.638;9.060;2024-02-23T12:54:20;1.00;;;1.00;;
10523;SDS011;5310;48.638;9.060;2024-02-23T12:56:46;1.00;;;1.00;;
10523;SDS011;5310;48.638;9.060;2024-02-23T12:59:13;0.90;;;0.90;;
10523;SDS011;5310;48.638;9.060;2024-02-23T13:01:39;1.00;;;1.00;;
10523;SDS011;5310;48.638;9.060;2024-02-23T13:04:05;1.00;;;1.00;;
10523;SDS011;5310;48.638;9.060;2024-02-23T13:06:35;0.90;;;0.90;;
10523;SDS011;5310;48.638;9.060;2024-02-23T13:09:02;1.00;;;1.00;;
10523;SDS011;5310;48.638;9.060;2024-02-23T13:11:28;1.00;;;1.00;;
10523;SDS011;5310;48.638;9.060;2024-02-23T13:13:54;1.00;;;1.00;;
10523;SDS011;5310;48.638;9.060;2024-02-23T13:16:20;1.00;;;1.00;;
10523;SDS011;5310;48.638;9.060;2024-02-23T13:18:45;1.10;;;1.10;;
10523;SDS011;5310;48.638;9.060;2024-02-23T13:21:12;1.00;;;1.00;;
10523;SDS011;5310;48.638;9.060;2024-02-23T13:23:38;1.00;;;1.00;;
10523;SDS011;5310;48.638;9.060;2024-02-23T13:26:04;1.00;;;1.00;;
10523;SDS011;5310;48.638;9.060;2024-02-23T13:28:30;1.00;;;1.00;;
10523;SDS011;5310;48.638;9.060;2024-02-23T13:30:56;1.10;;;1.10;;
10523;SDS011;5310;48.638;9.060;2024-02-23T13:33:22;1.00;;;1.00;;
10523;SDS011;5310;48.638;9.060;2024-02-23T13:35:49;1.00;;;1.00;;
10523;SDS011;5310;48.638;9.060;2024-02-23T13:38:15;1.00;;;1.00;;
10523;SDS011;5310;48.638;9.060;2024-02-23T13:40:41;1.07;;;1.07;;
10523;SDS011;5310;48.638;9.060;2024-02-23T13:43:07;0.90;;;0.90;;
10523;SDS011;5310;48.638;9.060;2024-02-23T13:45:47;1.00;;;1.00;;
10523;SDS011;5310;48.638;9.060;2024-02-23T13:48:13;1.00;;;1.00;;
10523;SDS011;5310;48.638;9.060;2024-02-23T13:50:39;1.07;;;1.07;;
10523;SDS011;5310;48.638;9.060;2024-02-23T13:53:05;1.00;;;1.00;;
10523;SDS011;5310;48.638;9.060;2024-02-23T13:55:31;1.10;;;1.10;;
10523;SDS011;5310;48.638;9.060;2024-02-23T13:57:57;1.00;;;1.00;;
10523;SDS011;5310;48.638;9.060;2024-02-23T14:00:23;1.00;;;1.00;;
10523;SDS011;5310;48.638;9.060;2024-02-23T14:02:49;1.00;;;1.00;;
10523;SDS011;5310;48.638;9.060;2024-02-23T14:05:15;1.00;;;1.00;;
10523;SDS011;5310;48.638;9.060;2024-02-23T14:07:43;0.93;;;0.93;;
10523;SDS011;5310;48.638;9.060;2024-02-23T14:10:09;1.00;;;1.00;;
10523;SDS011;5310;48.638;9.060;2024-02-23T14:12:35;1.00;;;1.00;;
10523;SDS011;5310;48.638;9.060;2024-02-23T14:15:01;1.00;;;1.00;;
10523;SDS011;5310;48.638;9.060;2024-02-23T14:17:27;0.90;;;0.90;;
10523;SDS011;5310;48.638;9.060;2024-02-23T14:19:53;1.00;;;1.00;;
10523;SDS011;5310;48.638;9.060;2024-02-23T14:22:19;1.00;;;1.00;;
10523;SDS011;5310;48.638;9.060;2024-02-23T14:24:44;1.00;;;1.00;;
10523;SDS011;5310;48.638;9.060;2024-02-23T14:27:10;1.00;;;1.00;;
10523;SDS011;5310;48.638;9.060;2024-02-23T14:29:36;1.00;;;1.00;;
10523;SDS011;5310;48.638;9.060;2024-02-23T14:32:02;1.00;;;1.00;;
10523;SDS011;5310;48.638;9.060;2024-02-23T14:34:29;0.90;;;0.90;;
10523;SDS011;5310;48.638;9.060;2024-02-23T14:36:55;1.00;;;1.00;;
10523;SDS011;5310;48.638;9.060;2024-02-23T14:39:21;0.93;;;0.93;;
10523;SDS011;5310;48.638;9.060;2024-02-23T14:41:47;0.90;;;0.90;;
10523;SDS011;5310;48.638;9.060;2024-02-23T14:44:13;1.00;;;1.00;;
10523;SDS011;5310;48.638;9.060;2024-02-23T14:46:39;0.93;;;0.93;;
10523;SDS011;5310;48.638;9.060;2024-02-23T14:49:06;0.90;;;0.90;;
10523;SDS011;5310;48.638;9.060;2024-02-23T14:51:32;1.00;;;1.00;;
10523;SDS011;5310;48.638;9.060;2024-02-23T14:54:00;1.00;;;1.00;;
10523;SDS011;5310;48.638;9.060;2024-02-23T14:56:27;1.00;;;1.00;;